Foz do Iguacu, Brazil
Current Conditions -  °F | °C
As of 8:00 PM on Saturday 25 Oct 2014 (Local Time) from SBFI Reporting Station
Clear Clear  
Wind Chill: 82°   Ceiling: Unl
Heat Index: 85°   Visibility: 6mi
Dew Point: 68°   Wind: 5mph
Humidity: 62%   Direction: 40°NE
Pressure: 29.83"   Gusts: NA
Location:  25.55°S, 54.58°W
Report Text: SBFI 252200Z 04004KT CAVOK 28/20 Q1010
Loading
Personal Weather Stations






























Interactive Weather Map
Tropical Storm Tracking
New forecast layout! Learn more

10-Day Weather Forecast

Advertisements
Track Severe Weather on mobile